sensor_id;sensor_type;location;lat;lon;timestamp;temperature;humidity
23291;DHT22;11814;44.686;10.842;2024-02-26T00:02:23;9.20;99.90
23291;DHT22;11814;44.686;10.842;2024-02-26T00:04:48;9.30;99.90
23291;DHT22;11814;44.686;10.842;2024-02-26T00:07:15;9.10;99.90
23291;DHT22;11814;44.686;10.842;2024-02-26T00:09:41;9.10;99.90
23291;DHT22;11814;44.686;10.842;2024-02-26T00:12:06;9.20;99.90
23291;DHT22;11814;44.686;10.842;2024-02-26T00:14:32;9.10;99.90
23291;DHT22;11814;44.686;10.842;2024-02-26T00:16:58;9.00;99.90
23291;DHT22;11814;44.686;10.842;2024-02-26T00:19:24;9.00;99.90
23291;DHT22;11814;44.686;10.842;2024-02-26T00:21:49;9.00;99.90
23291;DHT22;11814;44.686;10.842;2024-02-26T00:24:15;8.90;99.90
23291;DHT22;11814;44.686;10.842;2024-02-26T00:26:40;9.00;99.90
23291;DHT22;11814;44.686;10.842;2024-02-26T00:29:06;9.00;99.90
23291;DHT22;11814;44.686;10.842;2024-02-26T00:31:32;9.10;99.90
23291;DHT22;11814;44.686;10.842;2024-02-26T00:33:57;9.10;99.90
23291;DHT22;11814;44.686;10.842;2024-02-26T00:36:23;9.10;99.90
23291;DHT22;11814;44.686;10.842;2024-02-26T00:38:49;9.20;99.90
23291;DHT22;11814;44.686;10.842;2024-02-26T00:41:18;9.20;99.90
23291;DHT22;11814;44.686;10.842;2024-02-26T00:43:44;9.30;99.90
23291;DHT22;11814;44.686;10.842;2024-02-26T00:46:10;9.30;99.90
23291;DHT22;11814;44.686;10.842;2024-02-26T00:48:35;9.30;99.90
23291;DHT22;11814;44.686;10.842;2024-02-26T00:51:02;9.30;99.90
23291;DHT22;11814;44.686;10.842;2024-02-26T00:53:30;9.30;99.90
23291;DHT22;11814;44.686;10.842;2024-02-26T00:55:56;9.30;99.90
23291;DHT22;11814;44.686;10.842;2024-02-26T00:58:24;9.40;99.90
23291;DHT22;11814;44.686;10.842;2024-02-26T01:00:50;9.40;99.90
23291;DHT22;11814;44.686;10.842;2024-02-26T01:03:17;9.40;99.90
23291;DHT22;11814;44.686;10.842;2024-02-26T01:05:43;9.40;99.90
23291;DHT22;11814;44.686;10.842;2024-02-26T01:08:08;9.30;99.90
23291;DHT22;11814;44.686;10.842;2024-02-26T01:10:34;9.30;99.90
23291;DHT22;11814;44.686;10.842;2024-02-26T01:13:01;9.20;99.90
23291;DHT22;11814;44.686;10.842;2024-02-26T01:15:27;9.10;99.90
23291;DHT22;11814;44.686;10.842;2024-02-26T01:17:52;9.00;99.90
23291;DHT22;11814;44.686;10.842;2024-02-26T01:20:18;9.10;99.90
23291;DHT22;11814;44.686;10.842;2024-02-26T01:22:44;8.90;99.90
23291;DHT22;11814;44.686;10.842;2024-02-26T01:25:10;8.90;99.90
23291;DHT22;11814;44.686;10.842;2024-02-26T01:27:39;9.10;99.90
23291;DHT22;11814;44.686;10.842;2024-02-26T01:30:07;8.90;99.90
23291;DHT22;11814;44.686;10.842;2024-02-26T01:32:33;9.00;99.90
23291;DHT22;11814;44.686;10.842;2024-02-26T01:34:58;9.00;99.90
23291;DHT22;11814;44.686;10.842;2024-02-26T01:37:24;9.00;99.90
23291;DHT22;11814;44.686;10.842;2024-02-26T01:39:50;9.10;99.90
23291;DHT22;11814;44.686;10.842;2024-02-26T01:42:15;9.00;99.90
23291;DHT22;11814;44.686;10.842;2024-02-26T01:44:41;8.90;99.90
23291;DHT22;11814;44.686;10.842;2024-02-26T01:47:10;9.00;99.90
23291;DHT22;11814;44.686;10.842;2024-02-26T01:49:37;9.00;99.90
23291;DHT22;11814;44.686;10.842;2024-02-26T01:52:04;8.90;99.90
23291;DHT22;11814;44.686;10.842;2024-02-26T01:54:30;8.70;99.90
23291;DHT22;11814;44.686;10.842;2024-02-26T01:56:57;8.70;99.90
23291;DHT22;11814;44.686;10.842;2024-02-26T01:59:23;8.80;99.90
23291;DHT22;11814;44.686;10.842;2024-02-26T02:01:54;8.70;99.90
23291;DHT22;11814;44.686;10.842;2024-02-26T02:04:21;8.70;99.90
23291;DHT22;11814;44.686;10.842;2024-02-26T02:06:48;8.60;99.90
23291;DHT22;11814;44.686;10.842;2024-02-26T02:09:14;8.70;99.90
23291;DHT22;11814;44.686;10.842;2024-02-26T02:11:40;8.50;99.90
23291;DHT22;11814;44.686;10.842;2024-02-26T02:14:06;8.30;99.90
23291;DHT22;11814;44.686;10.842;2024-02-26T02:16:31;8.40;99.90
23291;DHT22;11814;44.686;10.842;2024-02-26T02:18:58;8.30;99.90
23291;DHT22;11814;44.686;10.842;2024-02-26T02:21:24;8.30;99.90
23291;DHT22;11814;44.686;10.842;2024-02-26T02:23:49;8.40;99.90
23291;DHT22;11814;44.686;10.842;2024-02-26T02:26:15;8.40;99.90
23291;DHT22;11814;44.686;10.842;2024-02-26T02:28:41;8.50;99.90
23291;DHT22;11814;44.686;10.842;2024-02-26T02:31:07;8.60;99.90
23291;DHT22;11814;44.686;10.842;2024-02-26T02:33:34;8.50;99.90
23291;DHT22;11814;44.686;10.842;2024-02-26T02:36:00;8.50;99.90
23291;DHT22;11814;44.686;10.842;2024-02-26T02:38:26;8.60;99.90
23291;DHT22;11814;44.686;10.842;2024-02-26T02:40:53;8.60;99.90
23291;DHT22;11814;44.686;10.842;2024-02-26T02:43:18;8.70;99.90
23291;DHT22;11814;44.686;10.842;2024-02-26T02:45:44;8.80;99.90
23291;DHT22;11814;44.686;10.842;2024-02-26T02:48:11;8.70;99.90
23291;DHT22;11814;44.686;10.842;2024-02-26T02:50:36;8.70;99.90
23291;DHT22;11814;44.686;10.842;2024-02-26T02:53:02;8.70;99.90
23291;DHT22;11814;44.686;10.842;2024-02-26T02:55:28;8.50;99.90
23291;DHT22;11814;44.686;10.842;2024-02-26T02:57:53;8.70;99.90
23291;DHT22;11814;44.686;10.842;2024-02-26T03:00:19;8.70;99.90
23291;DHT22;11814;44.686;10.842;2024-02-26T03:02:45;8.70;99.90
23291;DHT22;11814;44.686;10.842;2024-02-26T03:05:11;8.70;99.90
23291;DHT22;11814;44.686;10.842;2024-02-26T03:07:37;8.70;99.90
23291;DHT22;11814;44.686;10.842;2024-02-26T03:10:03;8.60;99.90
23291;DHT22;11814;44.686;10.842;2024-02-26T03:12:30;8.70;99.90
23291;DHT22;11814;44.686;10.842;2024-02-26T03:14:55;8.70;99.90
23291;DHT22;11814;44.686;10.842;2024-02-26T03:17:21;8.80;99.90
23291;DHT22;11814;44.686;10.842;2024-02-26T03:19:47;8.80;99.90
23291;DHT22;11814;44.686;10.842;2024-02-26T03:22:13;8.80;99.90
23291;DHT22;11814;44.686;10.842;2024-02-26T03:24:38;8.80;99.90
23291;DHT22;11814;44.686;10.842;2024-02-26T03:27:04;9.10;99.90
23291;DHT22;11814;44.686;10.842;2024-02-26T03:29:35;8.90;99.90
23291;DHT22;11814;44.686;10.842;2024-02-26T03:32:01;8.90;99.90
23291;DHT22;11814;44.686;10.842;2024-02-26T03:34:27;8.90;99.90
23291;DHT22;11814;44.686;10.842;2024-02-26T03:36:53;8.90;99.90
23291;DHT22;11814;44.686;10.842;2024-02-26T03:39:18;8.90;99.90
23291;DHT22;11814;44.686;10.842;2024-02-26T03:41:44;8.90;99.90
23291;DHT22;11814;44.686;10.842;2024-02-26T03:44:10;9.00;99.90
23291;DHT22;11814;44.686;10.842;2024-02-26T03:46:35;8.90;99.90
23291;DHT22;11814;44.686;10.842;2024-02-26T03:49:01;8.90;99.90
23291;DHT22;11814;44.686;10.842;2024-02-26T03:51:26;8.90;99.90
23291;DHT22;11814;44.686;10.842;2024-02-26T03:53:57;8.90;99.90
23291;DHT22;11814;44.686;10.842;2024-02-26T03:56:23;8.90;99.90
23291;DHT22;11814;44.686;10.842;2024-02-26T03:58:48;8.80;99.90
23291;DHT22;11814;44.686;10.842;2024-02-26T04:01:14;8.80;99.90
23291;DHT22;11814;44.686;10.842;2024-02-26T04:03:40;8.80;99.90
23291;DHT22;11814;44.686;10.842;2024-02-26T04:06:08;8.80;99.90
23291;DHT22;11814;44.686;10.842;2024-02-26T04:08:34;8.80;99.90
23291;DHT22;11814;44.686;10.842;2024-02-26T04:11:00;8.80;99.90
23291;DHT22;11814;44.686;10.842;2024-02-26T04:13:26;8.80;99.90
23291;DHT22;11814;44.686;10.842;2024-02-26T04:15:51;8.90;99.90
23291;DHT22;11814;44.686;10.842;2024-02-26T04:18:17;9.10;99.90
23291;DHT22;11814;44.686;10.842;2024-02-26T04:20:42;8.70;99.90
23291;DHT22;11814;44.686;10.842;2024-02-26T04:23:08;8.80;99.90
23291;DHT22;11814;44.686;10.842;2024-02-26T04:25:34;8.70;99.90
23291;DHT22;11814;44.686;10.842;2024-02-26T04:27:59;8.70;99.90
23291;DHT22;11814;44.686;10.842;2024-02-26T04:30:25;8.70;99.90
23291;DHT22;11814;44.686;10.842;2024-02-26T04:32:51;8.60;99.90
23291;DHT22;11814;44.686;10.842;2024-02-26T04:35:17;8.60;99.90
23291;DHT22;11814;44.686;10.842;2024-02-26T04:37:42;8.60;99.90
23291;DHT22;11814;44.686;10.842;2024-02-26T04:40:08;8.60;99.90
23291;DHT22;11814;44.686;10.842;2024-02-26T04:42:34;8.70;99.90
23291;DHT22;11814;44.686;10.842;2024-02-26T04:45:00;8.70;99.90
23291;DHT22;11814;44.686;10.842;2024-02-26T04:47:25;8.70;99.90
23291;DHT22;11814;44.686;10.842;2024-02-26T04:49:51;8.70;99.90
23291;DHT22;11814;44.686;10.842;2024-02-26T04:52:18;8.80;99.90
23291;DHT22;11814;44.686;10.842;2024-02-26T04:54:43;8.70;99.90
23291;DHT22;11814;44.686;10.842;2024-02-26T04:57:09;8.60;99.90
23291;DHT22;11814;44.686;10.842;2024-02-26T04:59:35;8.80;99.90
23291;DHT22;11814;44.686;10.842;2024-02-26T05:02:00;8.70;99.90
23291;DHT22;11814;44.686;10.842;2024-02-26T05:04:26;8.70;99.90
23291;DHT22;11814;44.686;10.842;2024-02-26T05:06:51;8.70;99.90
23291;DHT22;11814;44.686;10.842;2024-02-26T05:09:18;8.70;99.90
23291;DHT22;11814;44.686;10.842;2024-02-26T05:11:44;8.70;99.90
23291;DHT22;11814;44.686;10.842;2024-02-26T05:14:10;8.70;99.90
23291;DHT22;11814;44.686;10.842;2024-02-26T05:16:35;8.70;99.90
23291;DHT22;11814;44.686;10.842;2024-02-26T05:19:01;8.70;99.90
23291;DHT22;11814;44.686;10.842;2024-02-26T05:21:27;8.60;99.90
23291;DHT22;11814;44.686;10.842;2024-02-26T05:23:52;8.60;99.90
23291;DHT22;11814;44.686;10.842;2024-02-26T05:26:22;8.70;99.90
23291;DHT22;11814;44.686;10.842;2024-02-26T05:28:48;8.60;99.90
23291;DHT22;11814;44.686;10.842;2024-02-26T05:31:14;8.50;99.90
23291;DHT22;11814;44.686;10.842;2024-02-26T05:33:40;8.50;99.90
23291;DHT22;11814;44.686;10.842;2024-02-26T05:36:06;8.50;99.90
23291;DHT22;11814;44.686;10.842;2024-02-26T05:38:31;8.60;99.90
23291;DHT22;11814;44.686;10.842;2024-02-26T05:40:58;8.60;99.90
23291;DHT22;11814;44.686;10.842;2024-02-26T05:43:25;8.70;99.90
23291;DHT22;11814;44.686;10.842;2024-02-26T05:45:50;8.60;99.90
23291;DHT22;11814;44.686;10.842;2024-02-26T05:48:16;8.60;99.90
23291;DHT22;11814;44.686;10.842;2024-02-26T05:50:42;8.60;99.90
23291;DHT22;11814;44.686;10.842;2024-02-26T05:53:07;8.60;99.90
23291;DHT22;11814;44.686;10.842;2024-02-26T05:55:33;8.60;99.90
23291;DHT22;11814;44.686;10.842;2024-02-26T05:57:58;8.50;99.90
23291;DHT22;11814;44.686;10.842;2024-02-26T06:00:24;8.60;99.90
23291;DHT22;11814;44.686;10.842;2024-02-26T06:02:49;8.60;99.90
23291;DHT22;11814;44.686;10.842;2024-02-26T06:05:15;8.60;99.90
23291;DHT22;11814;44.686;10.842;2024-02-26T06:07:41;8.70;99.90
23291;DHT22;11814;44.686;10.842;2024-02-26T06:10:07;8.60;99.90
23291;DHT22;11814;44.686;10.842;2024-02-26T06:12:35;8.50;99.90
23291;DHT22;11814;44.686;10.842;2024-02-26T06:15:01;8.50;99.90
23291;DHT22;11814;44.686;10.842;2024-02-26T06:17:26;8.50;99.90
23291;DHT22;11814;44.686;10.842;2024-02-26T06:19:53;8.40;99.90
23291;DHT22;11814;44.686;10.842;2024-02-26T06:22:21;8.40;99.90
23291;DHT22;11814;44.686;10.842;2024-02-26T06:24:47;8.30;99.90
23291;DHT22;11814;44.686;10.842;2024-02-26T06:27:12;8.30;99.90
23291;DHT22;11814;44.686;10.842;2024-02-26T06:29:38;8.10;99.90
23291;DHT22;11814;44.686;10.842;2024-02-26T06:32:05;8.30;99.90
23291;DHT22;11814;44.686;10.842;2024-02-26T06:34:30;8.30;99.90
23291;DHT22;11814;44.686;10.842;2024-02-26T06:36:56;8.40;99.90
23291;DHT22;11814;44.686;10.842;2024-02-26T06:39:22;8.50;99.90
23291;DHT22;11814;44.686;10.842;2024-02-26T06:41:47;8.50;99.90
23291;DHT22;11814;44.686;10.842;2024-02-26T06:44:13;8.50;99.90
23291;DHT22;11814;44.686;10.842;2024-02-26T06:46:39;8.60;99.90
23291;DHT22;11814;44.686;10.842;2024-02-26T06:49:05;8.50;99.90
23291;DHT22;11814;44.686;10.842;2024-02-26T06:51:31;8.60;99.90
23291;DHT22;11814;44.686;10.842;2024-02-26T06:53:56;8.50;99.90
23291;DHT22;11814;44.686;10.842;2024-02-26T06:56:22;8.60;99.90
23291;DHT22;11814;44.686;10.842;2024-02-26T06:58:47;8.60;99.90
23291;DHT22;11814;44.686;10.842;2024-02-26T07:01:13;8.60;99.90
23291;DHT22;11814;44.686;10.842;2024-02-26T07:03:42;8.60;99.90
23291;DHT22;11814;44.686;10.842;2024-02-26T07:06:08;8.60;99.90
23291;DHT22;11814;44.686;10.842;2024-02-26T07:08:34;8.50;99.90
23291;DHT22;11814;44.686;10.842;2024-02-26T07:10:59;8.50;99.90
23291;DHT22;11814;44.686;10.842;2024-02-26T07:13:25;8.50;99.90
23291;DHT22;11814;44.686;10.842;2024-02-26T07:15:51;8.40;99.90
23291;DHT22;11814;44.686;10.842;2024-02-26T07:18:16;8.40;99.90
23291;DHT22;11814;44.686;10.842;2024-02-26T07:20:42;8.30;99.90
23291;DHT22;11814;44.686;10.842;2024-02-26T07:23:08;8.30;99.90
23291;DHT22;11814;44.686;10.842;2024-02-26T07:25:34;8.20;99.90
23291;DHT22;11814;44.686;10.842;2024-02-26T07:27:59;8.10;99.90
23291;DHT22;11814;44.686;10.842;2024-02-26T07:30:25;8.10;99.90
23291;DHT22;11814;44.686;10.842;2024-02-26T07:32:50;8.30;99.90
23291;DHT22;11814;44.686;10.842;2024-02-26T07:35:16;8.20;99.90
23291;DHT22;11814;44.686;10.842;2024-02-26T07:37:43;8.10;99.90
23291;DHT22;11814;44.686;10.842;2024-02-26T07:40:09;8.20;99.90
23291;DHT22;11814;44.686;10.842;2024-02-26T07:42:35;8.10;99.90
23291;DHT22;11814;44.686;10.842;2024-02-26T07:45:02;8.10;99.90
23291;DHT22;11814;44.686;10.842;2024-02-26T07:47:28;8.10;99.90
23291;DHT22;11814;44.686;10.842;2024-02-26T07:49:55;8.10;99.90
23291;DHT22;11814;44.686;10.842;2024-02-26T07:52:20;8.10;99.90
23291;DHT22;11814;44.686;10.842;2024-02-26T07:54:46;8.00;99.90
23291;DHT22;11814;44.686;10.842;2024-02-26T07:57:12;8.00;99.90
23291;DHT22;11814;44.686;10.842;2024-02-26T07:59:40;8.10;99.90
23291;DHT22;11814;44.686;10.842;2024-02-26T08:02:06;8.30;99.90
23291;DHT22;11814;44.686;10.842;2024-02-26T08:04:31;8.40;99.90
23291;DHT22;11814;44.686;10.842;2024-02-26T08:06:57;8.40;99.90
23291;DHT22;11814;44.686;10.842;2024-02-26T08:09:23;8.50;99.90
23291;DHT22;11814;44.686;10.842;2024-02-26T08:11:48;8.60;99.90
23291;DHT22;11814;44.686;10.842;2024-02-26T08:14:14;8.60;99.90
23291;DHT22;11814;44.686;10.842;2024-02-26T08:16:39;8.60;99.90
23291;DHT22;11814;44.686;10.842;2024-02-26T08:19:05;8.70;99.90
23291;DHT22;11814;44.686;10.842;2024-02-26T08:21:30;8.70;99.90
23291;DHT22;11814;44.686;10.842;2024-02-26T08:23:56;8.70;99.90
23291;DHT22;11814;44.686;10.842;2024-02-26T08:26:22;8.90;99.90
23291;DHT22;11814;44.686;10.842;2024-02-26T08:28:49;9.10;99.90
23291;DHT22;11814;44.686;10.842;2024-02-26T08:31:16;9.10;99.90
23291;DHT22;11814;44.686;10.842;2024-02-26T08:33:42;9.30;99.90
23291;DHT22;11814;44.686;10.842;2024-02-26T08:36:08;9.20;99.90
23291;DHT22;11814;44.686;10.842;2024-02-26T08:38:34;9.30;99.90
23291;DHT22;11814;44.686;10.842;2024-02-26T08:41:01;9.30;99.90
23291;DHT22;11814;44.686;10.842;2024-02-26T08:43:28;9.20;99.90
23291;DHT22;11814;44.686;10.842;2024-02-26T08:45:53;9.10;99.90
23291;DHT22;11814;44.686;10.842;2024-02-26T08:48:19;9.20;99.90
23291;DHT22;11814;44.686;10.842;2024-02-26T08:50:45;9.20;99.90
23291;DHT22;11814;44.686;10.842;2024-02-26T08:53:10;9.20;99.90
23291;DHT22;11814;44.686;10.842;2024-02-26T08:55:36;9.20;99.90
23291;DHT22;11814;44.686;10.842;2024-02-26T08:58:01;9.30;99.90
23291;DHT22;11814;44.686;10.842;2024-02-26T09:00:27;9.30;99.90
23291;DHT22;11814;44.686;10.842;2024-02-26T09:02:53;9.20;99.90
23291;DHT22;11814;44.686;10.842;2024-02-26T09:05:18;9.30;99.90
23291;DHT22;11814;44.686;10.842;2024-02-26T09:07:44;9.30;99.90
23291;DHT22;11814;44.686;10.842;2024-02-26T09:10:10;9.40;99.90
23291;DHT22;11814;44.686;10.842;2024-02-26T09:12:36;9.30;99.90
23291;DHT22;11814;44.686;10.842;2024-02-26T09:15:02;9.50;99.90
23291;DHT22;11814;44.686;10.842;2024-02-26T09:17:28;9.50;99.90
23291;DHT22;11814;44.686;10.842;2024-02-26T09:19:54;9.50;99.90
23291;DHT22;11814;44.686;10.842;2024-02-26T09:22:19;9.60;99.90
23291;DHT22;11814;44.686;10.842;2024-02-26T09:24:45;9.70;99.90
23291;DHT22;11814;44.686;10.842;2024-02-26T09:27:10;9.70;99.90
23291;DHT22;11814;44.686;10.842;2024-02-26T09:29:36;9.70;99.90
23291;DHT22;11814;44.686;10.842;2024-02-26T09:32:02;9.70;99.90
23291;DHT22;11814;44.686;10.842;2024-02-26T09:34:28;9.80;99.90
23291;DHT22;11814;44.686;10.842;2024-02-26T09:36:53;9.70;99.90
23291;DHT22;11814;44.686;10.842;2024-02-26T09:39:19;9.80;99.90
23291;DHT22;11814;44.686;10.842;2024-02-26T09:41:47;9.90;99.90
23291;DHT22;11814;44.686;10.842;2024-02-26T09:44:18;10.00;99.90
23291;DHT22;11814;44.686;10.842;2024-02-26T09:46:45;10.00;99.90
23291;DHT22;11814;44.686;10.842;2024-02-26T09:49:12;10.20;99.90
23291;DHT22;11814;44.686;10.842;2024-02-26T09:51:38;10.20;99.90
23291;DHT22;11814;44.686;10.842;2024-02-26T09:54:08;10.30;99.90
23291;DHT22;11814;44.686;10.842;2024-02-26T09:56:35;10.20;99.90
23291;DHT22;11814;44.686;10.842;2024-02-26T09:59:03;10.40;99.90
23291;DHT22;11814;44.686;10.842;2024-02-26T10:01:29;10.40;99.90
23291;DHT22;11814;44.686;10.842;2024-02-26T10:03:59;10.40;99.90
23291;DHT22;11814;44.686;10.842;2024-02-26T10:06:26;10.50;99.90
23291;DHT22;11814;44.686;10.842;2024-02-26T10:08:54;10.60;99.90
23291;DHT22;11814;44.686;10.842;2024-02-26T10:11:20;10.70;99.90
23291;DHT22;11814;44.686;10.842;2024-02-26T10:13:47;10.50;99.90
23291;DHT22;11814;44.686;10.842;2024-02-26T10:16:13;10.60;99.90
23291;DHT22;11814;44.686;10.842;2024-02-26T10:18:50;10.60;99.90
23291;DHT22;11814;44.686;10.842;2024-02-26T10:21:16;10.90;99.90
23291;DHT22;11814;44.686;10.842;2024-02-26T10:23:43;10.70;99.90
23291;DHT22;11814;44.686;10.842;2024-02-26T10:26:10;10.70;99.90
23291;DHT22;11814;44.686;10.842;2024-02-26T10:28:38;10.70;99.90
23291;DHT22;11814;44.686;10.842;2024-02-26T10:31:04;10.70;99.90
23291;DHT22;11814;44.686;10.842;2024-02-26T10:33:31;10.70;99.90
23291;DHT22;11814;44.686;10.842;2024-02-26T10:35:58;10.70;99.90
23291;DHT22;11814;44.686;10.842;2024-02-26T10:38:24;10.70;99.90
23291;DHT22;11814;44.686;10.842;2024-02-26T10:40:49;10.70;99.90
23291;DHT22;11814;44.686;10.842;2024-02-26T10:43:15;10.50;99.90
23291;DHT22;11814;44.686;10.842;2024-02-26T10:45:42;10.70;99.90
23291;DHT22;11814;44.686;10.842;2024-02-26T10:48:14;10.60;99.90
23291;DHT22;11814;44.686;10.842;2024-02-26T10:50:40;10.70;99.90
23291;DHT22;11814;44.686;10.842;2024-02-26T10:53:14;10.70;99.90
23291;DHT22;11814;44.686;10.842;2024-02-26T10:55:42;10.70;99.90
23291;DHT22;11814;44.686;10.842;2024-02-26T10:58:10;10.70;99.90
23291;DHT22;11814;44.686;10.842;2024-02-26T11:00:38;10.80;99.90
23291;DHT22;11814;44.686;10.842;2024-02-26T11:03:05;10.70;99.90
23291;DHT22;11814;44.686;10.842;2024-02-26T11:05:32;10.80;99.90
23291;DHT22;11814;44.686;10.842;2024-02-26T11:08:00;10.60;99.90
23291;DHT22;11814;44.686;10.842;2024-02-26T11:10:27;10.60;99.90
23291;DHT22;11814;44.686;10.842;2024-02-26T11:12:56;10.70;99.90
23291;DHT22;11814;44.686;10.842;2024-02-26T11:15:23;10.80;99.90
23291;DHT22;11814;44.686;10.842;2024-02-26T11:17:52;10.70;99.90
23291;DHT22;11814;44.686;10.842;2024-02-26T11:20:19;10.70;99.90
23291;DHT22;11814;44.686;10.842;2024-02-26T11:22:45;10.70;99.90
23291;DHT22;11814;44.686;10.842;2024-02-26T11:25:11;10.70;99.90
23291;DHT22;11814;44.686;10.842;2024-02-26T11:27:44;10.70;99.90
23291;DHT22;11814;44.686;10.842;2024-02-26T11:30:11;10.80;99.90
23291;DHT22;11814;44.686;10.842;2024-02-26T11:32:38;10.80;99.90
23291;DHT22;11814;44.686;10.842;2024-02-26T11:35:05;10.70;99.90
23291;DHT22;11814;44.686;10.842;2024-02-26T11:37:32;10.70;99.90
23291;DHT22;11814;44.686;10.842;2024-02-26T11:39:59;10.70;99.90
23291;DHT22;11814;44.686;10.842;2024-02-26T11:42:25;10.80;99.90
23291;DHT22;11814;44.686;10.842;2024-02-26T11:44:51;10.60;99.90
23291;DHT22;11814;44.686;10.842;2024-02-26T11:47:21;10.70;99.90
23291;DHT22;11814;44.686;10.842;2024-02-26T11:49:48;10.70;99.90
23291;DHT22;11814;44.686;10.842;2024-02-26T11:52:14;10.70;99.90
23291;DHT22;11814;44.686;10.842;2024-02-26T11:54:47;10.70;99.90
23291;DHT22;11814;44.686;10.842;2024-02-26T11:57:30;10.60;99.90
23291;DHT22;11814;44.686;10.842;2024-02-26T12:02:45;10.70;99.90
23291;DHT22;11814;44.686;10.842;2024-02-26T12:05:19;10.70;99.90
23291;DHT22;11814;44.686;10.842;2024-02-26T12:07:47;10.70;99.90
23291;DHT22;11814;44.686;10.842;2024-02-26T12:10:32;10.70;99.90
23291;DHT22;11814;44.686;10.842;2024-02-26T12:18:17;10.60;99.90
23291;DHT22;11814;44.686;10.842;2024-02-26T12:20:43;10.50;99.90
23291;DHT22;11814;44.686;10.842;2024-02-26T12:23:14;10.60;99.90
23291;DHT22;11814;44.686;10.842;2024-02-26T12:25:40;10.60;99.90
23291;DHT22;11814;44.686;10.842;2024-02-26T12:28:07;10.70;99.90
23291;DHT22;11814;44.686;10.842;2024-02-26T12:30:33;10.70;99.90
23291;DHT22;11814;44.686;10.842;2024-02-26T12:32:59;10.80;99.90
23291;DHT22;11814;44.686;10.842;2024-02-26T12:35:26;10.90;99.90
23291;DHT22;11814;44.686;10.842;2024-02-26T12:37:55;10.90;99.90
23291;DHT22;11814;44.686;10.842;2024-02-26T12:40:21;11.00;99.90
23291;DHT22;11814;44.686;10.842;2024-02-26T12:42:47;10.90;99.90
23291;DHT22;11814;44.686;10.842;2024-02-26T12:45:14;10.90;99.90
23291;DHT22;11814;44.686;10.842;2024-02-26T12:47:45;10.90;99.90
23291;DHT22;11814;44.686;10.842;2024-02-26T12:50:16;10.90;99.90
23291;DHT22;11814;44.686;10.842;2024-02-26T12:52:46;10.90;99.90
23291;DHT22;11814;44.686;10.842;2024-02-26T12:55:18;10.70;99.90
23291;DHT22;11814;44.686;10.842;2024-02-26T12:57:45;10.80;99.90
23291;DHT22;11814;44.686;10.842;2024-02-26T13:00:13;10.80;99.90
23291;DHT22;11814;44.686;10.842;2024-02-26T13:02:41;10.80;99.90
23291;DHT22;11814;44.686;10.842;2024-02-26T13:05:08;10.80;99.90
23291;DHT22;11814;44.686;10.842;2024-02-26T13:07:40;10.80;99.90
23291;DHT22;11814;44.686;10.842;2024-02-26T13:10:06;10.80;99.90
23291;DHT22;11814;44.686;10.842;2024-02-26T13:12:32;10.90;99.90
23291;DHT22;11814;44.686;10.842;2024-02-26T13:15:04;10.90;99.90
23291;DHT22;11814;44.686;10.842;2024-02-26T13:17:33;11.00;99.90
23291;DHT22;11814;44.686;10.842;2024-02-26T13:19:59;11.20;99.90
23291;DHT22;11814;44.686;10.842;2024-02-26T13:22:25;11.20;99.90
23291;DHT22;11814;44.686;10.842;2024-02-26T13:24:57;11.30;99.90
23291;DHT22;11814;44.686;10.842;2024-02-26T13:27:24;11.50;99.90
23291;DHT22;11814;44.686;10.842;2024-02-26T13:30:08;11.60;99.90
23291;DHT22;11814;44.686;10.842;2024-02-26T13:32:36;11.80;99.90
23291;DHT22;11814;44.686;10.842;2024-02-26T13:35:09;11.90;99.90
23291;DHT22;11814;44.686;10.842;2024-02-26T13:37:38;12.00;99.90
23291;DHT22;11814;44.686;10.842;2024-02-26T13:40:05;12.10;99.90
23291;DHT22;11814;44.686;10.842;2024-02-26T13:42:31;12.30;99.90
23291;DHT22;11814;44.686;10.842;2024-02-26T13:44:57;12.50;99.90
23291;DHT22;11814;44.686;10.842;2024-02-26T13:47:22;12.90;99.90
23291;DHT22;11814;44.686;10.842;2024-02-26T13:49:48;13.10;99.90
23291;DHT22;11814;44.686;10.842;2024-02-26T13:52:13;13.20;99.90
23291;DHT22;11814;44.686;10.842;2024-02-26T13:54:39;13.10;99.90
23291;DHT22;11814;44.686;10.842;2024-02-26T13:57:06;13.00;99.90
23291;DHT22;11814;44.686;10.842;2024-02-26T13:59:32;12.80;99.90
23291;DHT22;11814;44.686;10.842;2024-02-26T14:01:57;12.80;99.90
23291;DHT22;11814;44.686;10.842;2024-02-26T14:04:23;12.70;99.90
23291;DHT22;11814;44.686;10.842;2024-02-26T14:06:49;12.50;99.90
23291;DHT22;11814;44.686;10.842;2024-02-26T14:09:14;12.40;99.90
23291;DHT22;11814;44.686;10.842;2024-02-26T14:11:45;12.20;99.90
23291;DHT22;11814;44.686;10.842;2024-02-26T14:14:11;12.20;99.90
23291;DHT22;11814;44.686;10.842;2024-02-26T14:16:36;12.10;99.90
23291;DHT22;11814;44.686;10.842;2024-02-26T14:19:02;12.10;99.90
23291;DHT22;11814;44.686;10.842;2024-02-26T14:21:28;12.10;99.90
23291;DHT22;11814;44.686;10.842;2024-02-26T14:23:58;12.10;99.90
23291;DHT22;11814;44.686;10.842;2024-02-26T14:26:23;12.10;99.90
23291;DHT22;11814;44.686;10.842;2024-02-26T14:28:49;12.10;99.90
23291;DHT22;11814;44.686;10.842;2024-02-26T14:31:17;12.20;99.90
23291;DHT22;11814;44.686;10.842;2024-02-26T14:33:43;12.20;99.90
23291;DHT22;11814;44.686;10.842;2024-02-26T14:36:09;12.20;99.90
23291;DHT22;11814;44.686;10.842;2024-02-26T14:38:35;12.30;99.90
23291;DHT22;11814;44.686;10.842;2024-02-26T14:41:01;12.30;99.90
23291;DHT22;11814;44.686;10.842;2024-02-26T14:43:28;12.30;99.90
23291;DHT22;11814;44.686;10.842;2024-02-26T14:45:53;12.30;99.90
23291;DHT22;11814;44.686;10.842;2024-02-26T14:48:19;12.30;99.90
23291;DHT22;11814;44.686;10.842;2024-02-26T14:50:45;12.20;99.90
23291;DHT22;11814;44.686;10.842;2024-02-26T14:53:10;12.10;99.90
23291;DHT22;11814;44.686;10.842;2024-02-26T14:55:36;12.10;99.90
23291;DHT22;11814;44.686;10.842;2024-02-26T14:58:01;12.00;99.90
23291;DHT22;11814;44.686;10.842;2024-02-26T15:00:27;12.00;99.90
23291;DHT22;11814;44.686;10.842;2024-02-26T15:02:52;11.90;99.90
23291;DHT22;11814;44.686;10.842;2024-02-26T15:05:20;12.00;99.90
23291;DHT22;11814;44.686;10.842;2024-02-26T15:07:46;12.00;99.90
23291;DHT22;11814;44.686;10.842;2024-02-26T15:10:11;11.80;99.90
23291;DHT22;11814;44.686;10.842;2024-02-26T15:12:37;11.80;99.90
23291;DHT22;11814;44.686;10.842;2024-02-26T15:15:03;11.70;99.90
23291;DHT22;11814;44.686;10.842;2024-02-26T15:17:29;11.70;99.90
23291;DHT22;11814;44.686;10.842;2024-02-26T15:19:57;11.80;99.90
23291;DHT22;11814;44.686;10.842;2024-02-26T15:22:24;11.90;99.90
23291;DHT22;11814;44.686;10.842;2024-02-26T15:24:50;11.90;99.90
23291;DHT22;11814;44.686;10.842;2024-02-26T15:27:15;11.90;99.90
23291;DHT22;11814;44.686;10.842;2024-02-26T15:29:42;12.00;99.90